sensor_id;sensor_type;location;lat;lon;timestamp;pressure;altitude;pressure_sealevel;temperature;humidity
21395;BME280;10858;42.714;23.180;2023-04-19T00:01:22;94007.00;;;11.57;77.54
21395;BME280;10858;42.714;23.180;2023-04-19T00:03:49;93999.50;;;11.52;77.89
21395;BME280;10858;42.714;23.180;2023-04-19T00:06:16;94004.06;;;11.42;77.90
21395;BME280;10858;42.714;23.180;2023-04-19T00:08:42;94003.56;;;11.29;78.38
21395;BME280;10858;42.714;23.180;2023-04-19T00:11:09;93994.13;;;11.17;78.95
21395;BME280;10858;42.714;23.180;2023-04-19T00:13:35;94002.78;;;11.19;78.79
21395;BME280;10858;42.714;23.180;2023-04-19T00:16:02;93997.19;;;11.22;78.19
21395;BME280;10858;42.714;23.180;2023-04-19T00:18:28;93999.03;;;11.39;78.20
21395;BME280;10858;42.714;23.180;2023-04-19T00:20:54;94000.72;;;11.58;77.23
21395;BME280;10858;42.714;23.180;2023-04-19T00:23:21;93996.78;;;11.44;77.21
21395;BME280;10858;42.714;23.180;2023-04-19T00:25:48;93993.78;;;11.30;77.15
21395;BME280;10858;42.714;23.180;2023-04-19T00:28:14;93991.66;;;11.33;76.98
21395;BME280;10858;42.714;23.180;2023-04-19T00:30:41;93988.88;;;11.52;76.88
21395;BME280;10858;42.714;23.180;2023-04-19T00:33:07;93991.72;;;11.68;76.00
21395;BME280;10858;42.714;23.180;2023-04-19T00:35:41;93991.78;;;11.76;75.67
21395;BME280;10858;42.714;23.180;2023-04-19T00:38:07;93990.06;;;11.67;75.70
21395;BME280;10858;42.714;23.180;2023-04-19T00:40:34;93990.22;;;11.66;75.37
21395;BME280;10858;42.714;23.180;2023-04-19T00:43:01;93992.50;;;11.51;76.46
21395;BME280;10858;42.714;23.180;2023-04-19T00:45:28;93988.41;;;11.39;76.55
21395;BME280;10858;42.714;23.180;2023-04-19T00:47:55;93998.19;;;11.39;77.50
21395;BME280;10858;42.714;23.180;2023-04-19T00:50:21;93980.44;;;11.57;76.55
21395;BME280;10858;42.714;23.180;2023-04-19T00:52:48;93986.06;;;11.36;76.79
21395;BME280;10858;42.714;23.180;2023-04-19T00:55:14;93987.25;;;11.24;77.44
21395;BME280;10858;42.714;23.180;2023-04-19T00:57:40;93982.22;;;11.21;78.13
21395;BME280;10858;42.714;23.180;2023-04-19T01:00:07;93984.78;;;11.40;78.11
21395;BME280;10858;42.714;23.180;2023-04-19T01:02:34;93979.84;;;11.45;77.89
21395;BME280;10858;42.714;23.180;2023-04-19T01:05:01;93980.84;;;11.44;77.84
21395;BME280;10858;42.714;23.180;2023-04-19T01:07:28;93979.03;;;11.18;78.78
21395;BME280;10858;42.714;23.180;2023-04-19T01:09:54;93978.78;;;11.11;78.65
21395;BME280;10858;42.714;23.180;2023-04-19T01:12:20;93985.63;;;11.13;78.61
21395;BME280;10858;42.714;23.180;2023-04-19T01:14:48;93976.31;;;11.27;78.01
21395;BME280;10858;42.714;23.180;2023-04-19T01:17:16;93974.75;;;11.34;77.95
21395;BME280;10858;42.714;23.180;2023-04-19T01:19:42;93976.84;;;11.31;77.33
21395;BME280;10858;42.714;23.180;2023-04-19T01:22:09;93971.91;;;11.18;77.85
21395;BME280;10858;42.714;23.180;2023-04-19T01:24:35;93972.88;;;11.17;77.85
21395;BME280;10858;42.714;23.180;2023-04-19T01:27:01;93973.47;;;11.11;78.34
21395;BME280;10858;42.714;23.180;2023-04-19T01:29:28;93979.22;;;11.06;78.45
21395;BME280;10858;42.714;23.180;2023-04-19T01:31:54;93975.09;;;11.22;77.64
21395;BME280;10858;42.714;23.180;2023-04-19T01:34:20;93968.59;;;11.34;76.25
21395;BME280;10858;42.714;23.180;2023-04-19T01:36:48;93972.00;;;11.26;76.32
21395;BME280;10858;42.714;23.180;2023-04-19T01:39:14;93967.28;;;11.20;77.02
21395;BME280;10858;42.714;23.180;2023-04-19T01:41:40;93971.31;;;10.97;77.04
21395;BME280;10858;42.714;23.180;2023-04-19T01:44:07;93970.25;;;10.90;77.78
21395;BME280;10858;42.714;23.180;2023-04-19T01:46:33;93967.81;;;10.96;77.28
21395;BME280;10858;42.714;23.180;2023-04-19T01:49:01;93966.50;;;10.56;77.68
21395;BME280;10858;42.714;23.180;2023-04-19T01:51:27;93966.03;;;10.60;77.86
21395;BME280;10858;42.714;23.180;2023-04-19T01:53:53;93960.16;;;10.30;79.54
21395;BME280;10858;42.714;23.180;2023-04-19T01:56:20;93958.41;;;10.48;78.99
21395;BME280;10858;42.714;23.180;2023-04-19T01:58:49;93963.94;;;10.64;78.63
21395;BME280;10858;42.714;23.180;2023-04-19T02:01:15;93968.34;;;10.73;78.07
21395;BME280;10858;42.714;23.180;2023-04-19T02:03:42;93958.66;;;10.54;78.13
21395;BME280;10858;42.714;23.180;2023-04-19T02:06:12;93958.75;;;10.72;78.29
21395;BME280;10858;42.714;23.180;2023-04-19T02:08:39;93955.88;;;10.56;78.04
21395;BME280;10858;42.714;23.180;2023-04-19T02:11:10;93951.59;;;10.72;78.26
21395;BME280;10858;42.714;23.180;2023-04-19T02:13:37;93959.91;;;10.60;79.24
21395;BME280;10858;42.714;23.180;2023-04-19T02:16:03;93957.38;;;10.58;78.87
21395;BME280;10858;42.714;23.180;2023-04-19T02:18:31;93958.72;;;10.35;79.61
21395;BME280;10858;42.714;23.180;2023-04-19T02:20:58;93959.00;;;10.42;79.64
21395;BME280;10858;42.714;23.180;2023-04-19T02:23:24;93962.31;;;10.53;79.20
21395;BME280;10858;42.714;23.180;2023-04-19T02:25:51;93959.28;;;10.75;78.11
21395;BME280;10858;42.714;23.180;2023-04-19T02:28:17;93964.75;;;10.74;78.02
21395;BME280;10858;42.714;23.180;2023-04-19T02:30:43;93954.88;;;10.57;77.86
21395;BME280;10858;42.714;23.180;2023-04-19T02:33:09;93956.91;;;10.72;77.56
21395;BME280;10858;42.714;23.180;2023-04-19T02:35:36;93960.41;;;10.73;77.16
21395;BME280;10858;42.714;23.180;2023-04-19T02:38:03;93962.06;;;11.01;76.74
21395;BME280;10858;42.714;23.180;2023-04-19T02:40:30;93964.19;;;10.97;77.06
21395;BME280;10858;42.714;23.180;2023-04-19T02:42:56;93957.69;;;10.92;76.95
21395;BME280;10858;42.714;23.180;2023-04-19T02:45:22;93964.28;;;11.05;77.13
21395;BME280;10858;42.714;23.180;2023-04-19T02:47:48;93958.75;;;10.99;77.13
21395;BME280;10858;42.714;23.180;2023-04-19T02:50:16;93963.28;;;11.06;77.09
21395;BME280;10858;42.714;23.180;2023-04-19T02:52:42;93963.81;;;11.37;75.13
21395;BME280;10858;42.714;23.180;2023-04-19T02:55:08;93960.41;;;11.00;76.89
21395;BME280;10858;42.714;23.180;2023-04-19T02:57:35;93957.84;;;10.81;77.60
21395;BME280;10858;42.714;23.180;2023-04-19T03:00:01;93954.75;;;10.85;77.28
21395;BME280;10858;42.714;23.180;2023-04-19T03:02:27;93951.75;;;10.71;78.23
21395;BME280;10858;42.714;23.180;2023-04-19T03:04:53;93950.00;;;10.62;77.89
21395;BME280;10858;42.714;23.180;2023-04-19T03:07:20;93956.84;;;10.55;77.76
21395;BME280;10858;42.714;23.180;2023-04-19T03:09:46;93957.84;;;10.54;78.66
21395;BME280;10858;42.714;23.180;2023-04-19T03:12:12;93955.47;;;10.51;78.51
21395;BME280;10858;42.714;23.180;2023-04-19T03:14:39;93952.66;;;10.62;78.36
21395;BME280;10858;42.714;23.180;2023-04-19T03:17:05;93953.25;;;10.46;78.15
21395;BME280;10858;42.714;23.180;2023-04-19T03:19:31;93952.34;;;10.18;79.18
21395;BME280;10858;42.714;23.180;2023-04-19T03:21:57;93949.84;;;10.17;79.42
21395;BME280;10858;42.714;23.180;2023-04-19T03:24:28;93954.88;;;10.01;80.63
21395;BME280;10858;42.714;23.180;2023-04-19T03:26:55;93951.50;;;10.08;81.29
21395;BME280;10858;42.714;23.180;2023-04-19T03:29:21;93956.28;;;9.95;82.46
21395;BME280;10858;42.714;23.180;2023-04-19T03:31:47;93954.34;;;9.78;83.73
21395;BME280;10858;42.714;23.180;2023-04-19T03:34:14;93956.03;;;9.79;84.56
21395;BME280;10858;42.714;23.180;2023-04-19T03:36:40;93959.34;;;9.91;84.74
21395;BME280;10858;42.714;23.180;2023-04-19T03:39:06;93959.63;;;9.97;84.23
21395;BME280;10858;42.714;23.180;2023-04-19T03:41:33;93965.06;;;10.05;84.54
21395;BME280;10858;42.714;23.180;2023-04-19T03:43:59;93957.94;;;10.06;83.94
21395;BME280;10858;42.714;23.180;2023-04-19T03:46:25;93958.66;;;10.08;84.61
21395;BME280;10858;42.714;23.180;2023-04-19T03:48:52;93949.56;;;10.30;84.38
21395;BME280;10858;42.714;23.180;2023-04-19T03:51:18;93949.69;;;10.18;84.02
21395;BME280;10858;42.714;23.180;2023-04-19T03:53:45;93954.06;;;10.10;84.59
21395;BME280;10858;42.714;23.180;2023-04-19T03:56:11;93950.53;;;10.09;85.19
21395;BME280;10858;42.714;23.180;2023-04-19T03:58:37;93952.34;;;10.09;84.93
21395;BME280;10858;42.714;23.180;2023-04-19T04:01:03;93953.63;;;10.05;85.58
21395;BME280;10858;42.714;23.180;2023-04-19T04:03:31;93953.34;;;10.17;85.80
21395;BME280;10858;42.714;23.180;2023-04-19T04:05:58;93944.97;;;10.22;85.37
21395;BME280;10858;42.714;23.180;2023-04-19T04:08:24;93943.91;;;10.42;85.08
21395;BME280;10858;42.714;23.180;2023-04-19T04:10:53;93957.16;;;10.79;84.62
21395;BME280;10858;42.714;23.180;2023-04-19T04:13:19;93952.31;;;11.01;84.12
21395;BME280;10858;42.714;23.180;2023-04-19T04:15:45;93955.84;;;11.20;84.22
21395;BME280;10858;42.714;23.180;2023-04-19T04:18:11;93955.16;;;11.35;83.78
21395;BME280;10858;42.714;23.180;2023-04-19T04:20:38;93961.25;;;11.45;82.39
21395;BME280;10858;42.714;23.180;2023-04-19T04:23:04;93966.09;;;11.05;81.42
21395;BME280;10858;42.714;23.180;2023-04-19T04:25:30;93961.53;;;10.97;82.13
21395;BME280;10858;42.714;23.180;2023-04-19T04:27:58;93963.06;;;11.00;82.68
21395;BME280;10858;42.714;23.180;2023-04-19T04:30:24;93966.41;;;11.02;82.56
21395;BME280;10858;42.714;23.180;2023-04-19T04:32:51;93965.81;;;11.08;82.05
21395;BME280;10858;42.714;23.180;2023-04-19T04:35:18;93968.56;;;10.89;81.33
21395;BME280;10858;42.714;23.180;2023-04-19T04:37:44;93966.50;;;10.83;81.67
21395;BME280;10858;42.714;23.180;2023-04-19T04:40:10;93964.47;;;10.67;81.84
21395;BME280;10858;42.714;23.180;2023-04-19T04:42:37;93958.34;;;10.67;82.80
21395;BME280;10858;42.714;23.180;2023-04-19T04:45:03;93961.59;;;11.15;81.47
21395;BME280;10858;42.714;23.180;2023-04-19T04:47:33;93964.94;;;10.90;80.76
21395;BME280;10858;42.714;23.180;2023-04-19T04:50:00;93967.03;;;10.59;81.81
21395;BME280;10858;42.714;23.180;2023-04-19T04:52:27;93975.84;;;10.87;79.21
21395;BME280;10858;42.714;23.180;2023-04-19T04:54:53;93974.91;;;11.05;80.09
21395;BME280;10858;42.714;23.180;2023-04-19T04:57:19;93974.34;;;11.29;77.94
21395;BME280;10858;42.714;23.180;2023-04-19T04:59:46;93971.91;;;11.18;78.68
21395;BME280;10858;42.714;23.180;2023-04-19T05:02:15;93976.63;;;10.97;80.21
21395;BME280;10858;42.714;23.180;2023-04-19T05:04:42;93974.59;;;11.08;80.30
21395;BME280;10858;42.714;23.180;2023-04-19T05:07:08;93978.09;;;11.36;78.47
21395;BME280;10858;42.714;23.180;2023-04-19T05:09:34;93978.88;;;11.46;78.80
21395;BME280;10858;42.714;23.180;2023-04-19T05:12:00;93982.13;;;11.13;79.44
21395;BME280;10858;42.714;23.180;2023-04-19T05:14:27;93978.25;;;11.52;78.21
21395;BME280;10858;42.714;23.180;2023-04-19T05:16:53;93971.03;;;11.45;79.05
21395;BME280;10858;42.714;23.180;2023-04-19T05:19:19;93984.09;;;11.38;77.87
21395;BME280;10858;42.714;23.180;2023-04-19T05:21:46;93980.66;;;11.28;79.23
21395;BME280;10858;42.714;23.180;2023-04-19T05:24:13;93984.69;;;11.32;79.54
21395;BME280;10858;42.714;23.180;2023-04-19T05:26:39;93976.94;;;11.66;78.84
21395;BME280;10858;42.714;23.180;2023-04-19T05:29:05;93985.09;;;11.72;77.68
21395;BME280;10858;42.714;23.180;2023-04-19T05:31:31;93988.88;;;11.52;78.50
21395;BME280;10858;42.714;23.180;2023-04-19T05:33:58;93987.56;;;11.39;78.24
21395;BME280;10858;42.714;23.180;2023-04-19T05:36:24;93985.75;;;11.39;77.59
21395;BME280;10858;42.714;23.180;2023-04-19T05:38:51;93996.78;;;11.44;77.88
21395;BME280;10858;42.714;23.180;2023-04-19T05:41:17;93992.72;;;11.67;77.39
21395;BME280;10858;42.714;23.180;2023-04-19T05:43:44;93991.03;;;11.66;76.04
21395;BME280;10858;42.714;23.180;2023-04-19T05:46:10;93990.47;;;11.63;76.43
21395;BME280;10858;42.714;23.180;2023-04-19T05:48:36;93991.41;;;11.89;75.91
21395;BME280;10858;42.714;23.180;2023-04-19T05:51:03;93990.19;;;12.01;75.77
21395;BME280;10858;42.714;23.180;2023-04-19T05:53:29;93988.72;;;12.07;76.42
21395;BME280;10858;42.714;23.180;2023-04-19T05:55:56;93990.16;;;12.19;75.54
21395;BME280;10858;42.714;23.180;2023-04-19T05:58:22;93985.16;;;12.16;74.39
21395;BME280;10858;42.714;23.180;2023-04-19T06:00:48;93987.69;;;12.43;74.26
21395;BME280;10858;42.714;23.180;2023-04-19T06:03:16;93990.63;;;11.96;73.31
21395;BME280;10858;42.714;23.180;2023-04-19T06:05:42;93989.66;;;11.98;73.70
21395;BME280;10858;42.714;23.180;2023-04-19T06:08:08;93998.47;;;11.80;74.16
21395;BME280;10858;42.714;23.180;2023-04-19T06:10:35;93994.16;;;11.79;75.66
21395;BME280;10858;42.714;23.180;2023-04-19T06:13:02;94000.25;;;11.62;76.08
21395;BME280;10858;42.714;23.180;2023-04-19T06:15:28;93996.91;;;11.43;76.41
21395;BME280;10858;42.714;23.180;2023-04-19T06:17:55;94004.25;;;11.76;75.74
21395;BME280;10858;42.714;23.180;2023-04-19T06:20:22;94000.41;;;11.43;75.01
21395;BME280;10858;42.714;23.180;2023-04-19T06:22:48;94004.41;;;11.47;76.31
21395;BME280;10858;42.714;23.180;2023-04-19T06:25:14;94004.09;;;11.33;76.05
21395;BME280;10858;42.714;23.180;2023-04-19T06:27:40;94001.59;;;11.31;76.22
21395;BME280;10858;42.714;23.180;2023-04-19T06:30:07;94004.50;;;11.38;75.61
21395;BME280;10858;42.714;23.180;2023-04-19T06:32:33;94002.88;;;11.27;75.58
21395;BME280;10858;42.714;23.180;2023-04-19T06:34:59;94012.81;;;11.25;75.62
21395;BME280;10858;42.714;23.180;2023-04-19T06:37:25;94007.38;;;11.44;76.96
21395;BME280;10858;42.714;23.180;2023-04-19T06:39:52;94013.69;;;11.43;75.52
21395;BME280;10858;42.714;23.180;2023-04-19T06:42:18;94014.78;;;11.41;76.66
21395;BME280;10858;42.714;23.180;2023-04-19T06:44:45;94010.19;;;11.43;76.92
21395;BME280;10858;42.714;23.180;2023-04-19T06:47:11;94010.94;;;11.35;75.46
21395;BME280;10858;42.714;23.180;2023-04-19T06:49:38;94013.97;;;11.67;75.70
21395;BME280;10858;42.714;23.180;2023-04-19T06:52:04;94011.75;;;11.80;74.85
21395;BME280;10858;42.714;23.180;2023-04-19T06:54:30;94004.41;;;12.10;74.19
21395;BME280;10858;42.714;23.180;2023-04-19T06:56:56;94014.50;;;12.06;74.87
21395;BME280;10858;42.714;23.180;2023-04-19T06:59:22;94013.72;;;12.14;74.42
21395;BME280;10858;42.714;23.180;2023-04-19T07:01:50;94011.16;;;12.73;72.91
21395;BME280;10858;42.714;23.180;2023-04-19T07:04:16;94009.44;;;12.90;71.05
21395;BME280;10858;42.714;23.180;2023-04-19T07:06:42;94014.47;;;13.01;71.10
21395;BME280;10858;42.714;23.180;2023-04-19T07:09:08;94015.75;;;12.89;70.40
21395;BME280;10858;42.714;23.180;2023-04-19T07:11:35;94020.03;;;12.56;70.54
21395;BME280;10858;42.714;23.180;2023-04-19T07:14:01;94020.09;;;12.90;71.37
21395;BME280;10858;42.714;23.180;2023-04-19T07:16:28;94015.59;;;13.16;71.09
21395;BME280;10858;42.714;23.180;2023-04-19T07:18:54;94015.88;;;12.53;70.39
21395;BME280;10858;42.714;23.180;2023-04-19T07:21:20;94022.38;;;12.33;71.59
21395;BME280;10858;42.714;23.180;2023-04-19T07:23:47;94013.31;;;12.69;71.91
21395;BME280;10858;42.714;23.180;2023-04-19T07:26:13;94025.84;;;13.36;70.24
21395;BME280;10858;42.714;23.180;2023-04-19T07:28:42;94025.13;;;13.76;68.52
21395;BME280;10858;42.714;23.180;2023-04-19T07:31:14;94028.84;;;13.41;66.82
21395;BME280;10858;42.714;23.180;2023-04-19T07:33:42;94024.56;;;13.15;70.05
21395;BME280;10858;42.714;23.180;2023-04-19T07:36:09;94025.13;;;13.68;68.29
21395;BME280;10858;42.714;23.180;2023-04-19T07:38:35;94022.72;;;14.47;66.04
21395;BME280;10858;42.714;23.180;2023-04-19T07:41:02;94026.31;;;13.82;66.35
21395;BME280;10858;42.714;23.180;2023-04-19T07:43:30;94024.50;;;13.82;67.06
21395;BME280;10858;42.714;23.180;2023-04-19T07:45:56;94028.53;;;13.44;68.72
21395;BME280;10858;42.714;23.180;2023-04-19T07:48:22;94030.81;;;13.81;67.01
21395;BME280;10858;42.714;23.180;2023-04-19T07:50:49;94030.78;;;13.73;67.26
21395;BME280;10858;42.714;23.180;2023-04-19T07:53:15;94032.03;;;13.45;67.52
21395;BME280;10858;42.714;23.180;2023-04-19T07:55:41;94038.16;;;13.37;68.06
21395;BME280;10858;42.714;23.180;2023-04-19T07:58:07;94029.59;;;13.59;67.52
21395;BME280;10858;42.714;23.180;2023-04-19T08:00:34;94028.75;;;13.17;68.40
21395;BME280;10858;42.714;23.180;2023-04-19T08:03:02;94029.22;;;13.46;68.57
21395;BME280;10858;42.714;23.180;2023-04-19T08:05:29;94031.88;;;13.13;69.08
21395;BME280;10858;42.714;23.180;2023-04-19T08:07:56;94036.38;;;13.12;69.24
21395;BME280;10858;42.714;23.180;2023-04-19T08:10:22;94028.03;;;13.07;70.39
21395;BME280;10858;42.714;23.180;2023-04-19T08:12:49;94023.59;;;12.90;69.37
21395;BME280;10858;42.714;23.180;2023-04-19T08:15:16;94030.69;;;13.07;68.93
21395;BME280;10858;42.714;23.180;2023-04-19T08:17:42;94027.47;;;13.29;68.17
21395;BME280;10858;42.714;23.180;2023-04-19T08:20:10;94029.31;;;13.71;67.01
21395;BME280;10858;42.714;23.180;2023-04-19T08:22:40;94023.09;;;14.44;65.20
21395;BME280;10858;42.714;23.180;2023-04-19T08:25:07;94026.72;;;14.67;63.87
21395;BME280;10858;42.714;23.180;2023-04-19T08:27:35;94027.09;;;14.40;63.01
21395;BME280;10858;42.714;23.180;2023-04-19T08:30:02;94024.66;;;15.09;62.15
21395;BME280;10858;42.714;23.180;2023-04-19T08:32:28;94023.88;;;14.85;61.61
21395;BME280;10858;42.714;23.180;2023-04-19T08:34:54;94020.88;;;15.51;61.40
21395;BME280;10858;42.714;23.180;2023-04-19T08:37:22;94026.94;;;16.06;59.70
21395;BME280;10858;42.714;23.180;2023-04-19T08:39:49;94018.47;;;17.37;55.08
21395;BME280;10858;42.714;23.180;2023-04-19T08:42:15;94023.53;;;17.32;56.03
21395;BME280;10858;42.714;23.180;2023-04-19T08:44:42;94016.16;;;17.63;51.97
21395;BME280;10858;42.714;23.180;2023-04-19T08:47:10;94012.00;;;16.79;55.44
21395;BME280;10858;42.714;23.180;2023-04-19T08:49:39;94016.28;;;16.51;56.49
21395;BME280;10858;42.714;23.180;2023-04-19T08:52:09;94013.38;;;16.30;58.13
21395;BME280;10858;42.714;23.180;2023-04-19T08:54:38;94011.69;;;15.84;58.42
21395;BME280;10858;42.714;23.180;2023-04-19T08:57:04;94017.44;;;15.73;59.18
21395;BME280;10858;42.714;23.180;2023-04-19T08:59:31;94016.25;;;16.29;57.60
21395;BME280;10858;42.714;23.180;2023-04-19T09:02:00;94009.81;;;16.97;55.97
21395;BME280;10858;42.714;23.180;2023-04-19T09:04:27;94004.47;;;16.15;57.36
21395;BME280;10858;42.714;23.180;2023-04-19T09:06:54;94014.31;;;15.92;58.12
21395;BME280;10858;42.714;23.180;2023-04-19T09:09:22;94003.66;;;16.37;56.70
21395;BME280;10858;42.714;23.180;2023-04-19T09:11:49;94009.59;;;17.51;53.95
21395;BME280;10858;42.714;23.180;2023-04-19T09:14:17;94001.19;;;17.54;52.61
21395;BME280;10858;42.714;23.180;2023-04-19T09:16:44;93995.84;;;16.28;55.23
21395;BME280;10858;42.714;23.180;2023-04-19T09:19:11;94007.47;;;15.89;56.05
21395;BME280;10858;42.714;23.180;2023-04-19T09:21:38;94004.13;;;16.63;57.22
21395;BME280;10858;42.714;23.180;2023-04-19T09:24:05;93992.66;;;17.21;55.35
21395;BME280;10858;42.714;23.180;2023-04-19T09:26:32;94005.19;;;16.54;54.93
21395;BME280;10858;42.714;23.180;2023-04-19T09:29:00;94007.56;;;16.04;56.70
21395;BME280;10858;42.714;23.180;2023-04-19T09:31:37;93999.59;;;17.30;52.33
21395;BME280;10858;42.714;23.180;2023-04-19T09:34:18;94003.00;;;17.68;52.10
21395;BME280;10858;42.714;23.180;2023-04-19T09:36:44;94001.78;;;18.00;50.78
21395;BME280;10858;42.714;23.180;2023-04-19T09:39:11;94000.81;;;18.28;50.54
21395;BME280;10858;42.714;23.180;2023-04-19T09:41:52;93997.25;;;18.21;50.55
21395;BME280;10858;42.714;23.180;2023-04-19T09:44:19;94002.53;;;18.50;50.02
21395;BME280;10858;42.714;23.180;2023-04-19T09:46:46;93994.25;;;19.56;48.83
21395;BME280;10858;42.714;23.180;2023-04-19T09:49:14;93986.69;;;20.26;45.38
21395;BME280;10858;42.714;23.180;2023-04-19T09:51:42;93981.16;;;18.63;51.04
21395;BME280;10858;42.714;23.180;2023-04-19T09:54:10;93989.19;;;18.42;49.15
21395;BME280;10858;42.714;23.180;2023-04-19T09:56:37;93972.69;;;18.03;50.74
21395;BME280;10858;42.714;23.180;2023-04-19T09:59:04;93981.91;;;17.36;51.98
21395;BME280;10858;42.714;23.180;2023-04-19T10:01:50;93990.13;;;17.78;50.86
21395;BME280;10858;42.714;23.180;2023-04-19T10:04:18;93980.03;;;17.80;50.70
21395;BME280;10858;42.714;23.180;2023-04-19T10:06:52;93975.47;;;17.30;49.04
21395;BME280;10858;42.714;23.180;2023-04-19T10:09:20;93975.53;;;16.78;52.07
21395;BME280;10858;42.714;23.180;2023-04-19T10:11:51;93972.97;;;17.58;51.34
21395;BME280;10858;42.714;23.180;2023-04-19T10:14:21;93968.09;;;18.39;51.11
21395;BME280;10858;42.714;23.180;2023-04-19T10:16:50;93967.78;;;19.60;47.78
21395;BME280;10858;42.714;23.180;2023-04-19T10:19:19;93972.13;;;19.61;46.87
21395;BME280;10858;42.714;23.180;2023-04-19T10:21:47;93976.81;;;18.90;46.18
21395;BME280;10858;42.714;23.180;2023-04-19T10:24:15;93970.41;;;18.21;47.85
21395;BME280;10858;42.714;23.180;2023-04-19T10:27:10;93965.34;;;17.76;48.27
21395;BME280;10858;42.714;23.180;2023-04-19T10:30:00;93955.25;;;20.99;45.74
21395;BME280;10858;42.714;23.180;2023-04-19T10:32:42;93956.03;;;21.58;41.32
21395;BME280;10858;42.714;23.180;2023-04-19T10:35:32;93953.19;;;20.62;42.76
21395;BME280;10858;42.714;23.180;2023-04-19T10:38:14;93958.81;;;19.18;46.17
21395;BME280;10858;42.714;23.180;2023-04-19T10:40:59;93947.09;;;20.20;43.05
21395;BME280;10858;42.714;23.180;2023-04-19T10:43:34;93951.34;;;19.41;43.58
21395;BME280;10858;42.714;23.180;2023-04-19T10:46:13;93953.03;;;18.87;44.61
21395;BME280;10858;42.714;23.180;2023-04-19T10:49:01;93932.63;;;18.44;46.80
21395;BME280;10858;42.714;23.180;2023-04-19T11:01:52;93936.06;;;18.17;48.15
21395;BME280;10858;42.714;23.180;2023-04-19T11:06:55;93919.91;;;20.09;43.46
21395;BME280;10858;42.714;23.180;2023-04-19T11:09:22;93917.75;;;19.78;44.99
21395;BME280;10858;42.714;23.180;2023-04-19T11:11:49;93911.13;;;19.68;44.60
21395;BME280;10858;42.714;23.180;2023-04-19T11:14:16;93916.25;;;19.63;43.92
21395;BME280;10858;42.714;23.180;2023-04-19T11:16:43;93918.59;;;19.79;43.56
21395;BME280;10858;42.714;23.180;2023-04-19T11:19:09;93915.25;;;21.09;40.51
21395;BME280;10858;42.714;23.180;2023-04-19T11:21:39;93916.47;;;21.90;38.63
21395;BME280;10858;42.714;23.180;2023-04-19T11:24:09;93912.81;;;22.16;37.57
21395;BME280;10858;42.714;23.180;2023-04-19T11:26:35;93919.66;;;22.18;38.59
21395;BME280;10858;42.714;23.180;2023-04-19T11:29:02;93908.94;;;22.67;38.64
21395;BME280;10858;42.714;23.180;2023-04-19T11:31:31;93920.75;;;22.42;37.92
21395;BME280;10858;42.714;23.180;2023-04-19T11:33:58;93907.56;;;22.83;37.86
21395;BME280;10858;42.714;23.180;2023-04-19T11:36:28;93908.38;;;20.80;38.76
21395;BME280;10858;42.714;23.180;2023-04-19T11:38:54;93905.16;;;19.38;42.51
21395;BME280;10858;42.714;23.180;2023-04-19T11:41:20;93905.72;;;18.93;43.08
21395;BME280;10858;42.714;23.180;2023-04-19T11:43:46;93904.41;;;18.33;44.88
21395;BME280;10858;42.714;23.180;2023-04-19T11:46:13;93908.00;;;19.71;44.08
21395;BME280;10858;42.714;23.180;2023-04-19T11:48:53;93903.22;;;21.05;39.92
21395;BME280;10858;42.714;23.180;2023-04-19T11:51:19;93907.72;;;21.94;39.26
21395;BME280;10858;42.714;23.180;2023-04-19T11:53:46;93902.81;;;21.08;41.60
21395;BME280;10858;42.714;23.180;2023-04-19T11:56:12;93897.06;;;23.42;37.74
21395;BME280;10858;42.714;23.180;2023-04-19T11:58:46;93903.13;;;24.81;33.27
21395;BME280;10858;42.714;23.180;2023-04-19T12:01:18;93892.88;;;24.12;35.10
21395;BME280;10858;42.714;23.180;2023-04-19T12:03:53;93879.69;;;24.57;34.90
21395;BME280;10858;42.714;23.180;2023-04-19T12:06:28;93894.28;;;22.81;36.82
21395;BME280;10858;42.714;23.180;2023-04-19T12:08:56;93888.66;;;21.19;39.02
21395;BME280;10858;42.714;23.180;2023-04-19T12:11:40;93897.19;;;21.80;38.99
21395;BME280;10858;42.714;23.180;2023-04-19T12:16:34;93877.31;;;22.37;37.60
21395;BME280;10858;42.714;23.180;2023-04-19T12:19:18;93890.38;;;22.46;38.63
21395;BME280;10858;42.714;23.180;2023-04-19T12:21:46;93886.94;;;21.95;37.52
21395;BME280;10858;42.714;23.180;2023-04-19T12:24:14;93885.34;;;23.24;36.81
21395;BME280;10858;42.714;23.180;2023-04-19T12:26:55;93880.88;;;25.02;33.94
21395;BME280;10858;42.714;23.180;2023-04-19T12:29:21;93884.75;;;22.97;35.78
21395;BME280;10858;42.714;23.180;2023-04-19T12:31:48;93873.50;;;22.20;38.35
21395;BME280;10858;42.714;23.180;2023-04-19T12:34:14;93875.34;;;22.26;37.88
21395;BME280;10858;42.714;23.180;2023-04-19T12:36:40;93874.81;;;20.70;39.03
21395;BME280;10858;42.714;23.180;2023-04-19T12:39:06;93870.63;;;20.15;41.37
21395;BME280;10858;42.714;23.180;2023-04-19T12:41:33;93865.81;;;22.48;39.28
21395;BME280;10858;42.714;23.180;2023-04-19T12:43:59;93874.56;;;20.97;39.52
21395;BME280;10858;42.714;23.180;2023-04-19T12:46:28;93882.66;;;21.17;40.93
21395;BME280;10858;42.714;23.180;2023-04-19T12:48:54;93878.56;;;19.63;42.25
21395;BME280;10858;42.714;23.180;2023-04-19T12:51:20;93882.16;;;18.39;44.72
21395;BME280;10858;42.714;23.180;2023-04-19T12:53:51;93876.28;;;19.19;43.29
21395;BME280;10858;42.714;23.180;2023-04-19T12:56:17;93873.31;;;21.13;39.67
21395;BME280;10858;42.714;23.180;2023-04-19T12:58:43;93877.16;;;22.32;36.79
21395;BME280;10858;42.714;23.180;2023-04-19T13:01:10;93875.84;;;22.41;36.01
21395;BME280;10858;42.714;23.180;2023-04-19T13:03:36;93875.16;;;21.32;37.50
21395;BME280;10858;42.714;23.180;2023-04-19T13:06:05;93875.47;;;20.46;38.40
21395;BME280;10858;42.714;23.180;2023-04-19T13:08:32;93869.03;;;19.54;39.82